sensor_id;sensor_type;location;lat;lon;timestamp;pressure;altitude;pressure_sealevel;temperature;humidity
49104;BME280;34915;52.926;11.116;2022-09-29T00:01:20;99924.28;;;6.36;100.00
49104;BME280;34915;52.926;11.116;2022-09-29T00:03:46;99921.66;;;6.36;100.00
49104;BME280;34915;52.926;11.116;2022-09-29T00:06:14;99924.19;;;6.25;100.00
49104;BME280;34915;52.926;11.116;2022-09-29T00:08:41;99933.00;;;6.24;100.00
49104;BME280;34915;52.926;11.116;2022-09-29T00:11:08;99934.91;;;6.22;100.00
49104;BME280;34915;52.926;11.116;2022-09-29T00:13:34;99933.19;;;6.21;100.00
49104;BME280;34915;52.926;11.116;2022-09-29T00:16:01;99922.00;;;6.05;100.00
49104;BME280;34915;52.926;11.116;2022-09-29T00:18:29;99937.00;;;6.17;100.00
49104;BME280;34915;52.926;11.116;2022-09-29T00:20:59;99936.13;;;6.17;100.00
49104;BME280;34915;52.926;11.116;2022-09-29T00:23:25;99916.53;;;6.08;100.00
49104;BME280;34915;52.926;11.116;2022-09-29T00:28:29;99931.91;;;6.14;100.00
49104;BME280;34915;52.926;11.116;2022-09-29T00:30:57;99931.91;;;6.14;100.00
49104;BME280;34915;52.926;11.116;2022-09-29T00:33:24;99935.72;;;6.10;100.00
49104;BME280;34915;52.926;11.116;2022-09-29T00:36:01;99937.03;;;6.03;100.00
49104;BME280;34915;52.926;11.116;2022-09-29T00:38:28;99936.72;;;5.95;100.00
49104;BME280;34915;52.926;11.116;2022-09-29T00:40:55;99921.91;;;5.81;100.00
49104;BME280;34915;52.926;11.116;2022-09-29T00:43:47;99928.28;;;5.90;100.00
49104;BME280;34915;52.926;11.116;2022-09-29T00:46:09;99916.66;;;5.81;100.00
49104;BME280;34915;52.926;11.116;2022-09-29T00:48:35;99928.28;;;5.90;100.00
49104;BME280;34915;52.926;11.116;2022-09-29T00:51:03;99935.41;;;5.88;100.00
49104;BME280;34915;52.926;11.116;2022-09-29T00:53:29;99932.22;;;5.84;100.00
49104;BME280;34915;52.926;11.116;2022-09-29T00:55:59;99927.06;;;5.82;100.00
49104;BME280;34915;52.926;11.116;2022-09-29T00:58:34;99927.16;;;5.81;100.00
49104;BME280;34915;52.926;11.116;2022-09-29T01:01:03;99920.63;;;5.74;100.00
49104;BME280;34915;52.926;11.116;2022-09-29T01:03:32;99929.44;;;5.73;100.00
49104;BME280;34915;52.926;11.116;2022-09-29T01:06:09;99925.41;;;5.67;100.00
49104;BME280;34915;52.926;11.116;2022-09-29T01:08:41;99932.44;;;5.67;100.00
49104;BME280;34915;52.926;11.116;2022-09-29T01:11:09;99915.88;;;5.52;100.00
49104;BME280;34915;52.926;11.116;2022-09-29T01:13:36;99939.22;;;5.57;100.00
49104;BME280;34915;52.926;11.116;2022-09-29T01:16:02;99939.22;;;5.57;100.00
49104;BME280;34915;52.926;11.116;2022-09-29T01:18:29;99938.31;;;5.44;100.00
49104;BME280;34915;52.926;11.116;2022-09-29T01:21:06;99945.47;;;5.28;100.00
49104;BME280;34915;52.926;11.116;2022-09-29T01:26:25;99945.84;;;5.22;100.00
49104;BME280;34915;52.926;11.116;2022-09-29T01:31:59;99947.63;;;5.22;100.00
49104;BME280;34915;52.926;11.116;2022-09-29T01:34:39;99947.88;;;5.31;100.00
49104;BME280;34915;52.926;11.116;2022-09-29T01:39:39;99955.22;;;5.26;100.00
49104;BME280;34915;52.926;11.116;2022-09-29T01:44:45;99941.72;;;5.18;100.00
49104;BME280;34915;52.926;11.116;2022-09-29T01:50:02;99958.97;;;5.22;100.00
49104;BME280;34915;52.926;11.116;2022-09-29T01:52:32;99961.41;;;5.25;100.00
49104;BME280;34915;52.926;11.116;2022-09-29T01:57:30;99955.59;;;5.20;100.00
49104;BME280;34915;52.926;11.116;2022-09-29T02:02:39;99953.16;;;5.17;100.00
49104;BME280;34915;52.926;11.116;2022-09-29T02:05:10;99954.28;;;5.13;100.00
49104;BME280;34915;52.926;11.116;2022-09-29T02:07:43;99949.41;;;5.07;100.00
49104;BME280;34915;52.926;11.116;2022-09-29T02:10:39;99953.84;;;5.07;100.00
49104;BME280;34915;52.926;11.116;2022-09-29T02:13:08;99944.16;;;5.07;100.00
49104;BME280;34915;52.926;11.116;2022-09-29T02:15:37;99947.72;;;5.06;100.00
49104;BME280;34915;52.926;11.116;2022-09-29T02:18:12;99943.25;;;5.08;100.00
49104;BME280;34915;52.926;11.116;2022-09-29T02:20:40;99947.16;;;5.15;100.00
49104;BME280;34915;52.926;11.116;2022-09-29T02:23:06;99950.94;;;5.11;100.00
49104;BME280;34915;52.926;11.116;2022-09-29T02:25:35;99945.47;;;5.14;100.00
49104;BME280;34915;52.926;11.116;2022-09-29T02:28:03;99950.53;;;5.17;100.00
49104;BME280;34915;52.926;11.116;2022-09-29T02:30:29;99955.50;;;5.08;100.00
49104;BME280;34915;52.926;11.116;2022-09-29T02:32:54;99960.09;;;5.04;100.00
49104;BME280;34915;52.926;11.116;2022-09-29T02:35:20;99955.22;;;4.98;100.00
49104;BME280;34915;52.926;11.116;2022-09-29T02:38:02;99958.59;;;5.00;100.00
49104;BME280;34915;52.926;11.116;2022-09-29T02:46:33;99959.81;;;4.95;100.00
49104;BME280;34915;52.926;11.116;2022-09-29T02:51:36;99965.31;;;4.90;100.00
49104;BME280;34915;52.926;11.116;2022-09-29T03:00:09;99959.34;;;4.88;100.00
49104;BME280;34915;52.926;11.116;2022-09-29T03:02:38;99967.50;;;4.84;100.00
49104;BME280;34915;52.926;11.116;2022-09-29T03:05:05;99965.78;;;4.83;100.00
49104;BME280;34915;52.926;11.116;2022-09-29T03:07:32;99960.09;;;4.77;100.00
49104;BME280;34915;52.926;11.116;2022-09-29T03:09:58;99970.56;;;4.77;100.00
49104;BME280;34915;52.926;11.116;2022-09-29T03:12:24;99974.13;;;4.76;100.00
49104;BME280;34915;52.926;11.116;2022-09-29T03:14:49;99977.13;;;4.70;100.00
49104;BME280;34915;52.926;11.116;2022-09-29T03:17:15;99971.13;;;4.68;100.00
49104;BME280;34915;52.926;11.116;2022-09-29T03:19:41;99958.19;;;4.65;100.00
49104;BME280;34915;52.926;11.116;2022-09-29T03:22:06;99975.03;;;4.61;100.00
49104;BME280;34915;52.926;11.116;2022-09-29T03:24:32;99981.81;;;4.65;100.00
49104;BME280;34915;52.926;11.116;2022-09-29T03:26:57;99980.28;;;4.61;100.00
49104;BME280;34915;52.926;11.116;2022-09-29T03:29:23;99978.94;;;4.54;100.00
49104;BME280;34915;52.926;11.116;2022-09-29T03:31:48;99983.09;;;4.58;100.00
49104;BME280;34915;52.926;11.116;2022-09-29T03:34:14;99984.75;;;4.59;100.00
49104;BME280;34915;52.926;11.116;2022-09-29T03:36:40;99989.25;;;4.57;100.00
49104;BME280;34915;52.926;11.116;2022-09-29T03:39:08;99983.28;;;4.55;100.00
49104;BME280;34915;52.926;11.116;2022-09-29T03:41:33;99983.84;;;4.60;100.00
49104;BME280;34915;52.926;11.116;2022-09-29T03:43:59;99988.91;;;4.63;100.00
49104;BME280;34915;52.926;11.116;2022-09-29T03:46:24;99993.97;;;4.66;100.00
49104;BME280;34915;52.926;11.116;2022-09-29T03:48:50;99998.38;;;4.65;100.00
49104;BME280;34915;52.926;11.116;2022-09-29T03:51:15;99987.19;;;4.62;100.00
49104;BME280;34915;52.926;11.116;2022-09-29T03:53:41;99994.91;;;4.65;100.00
49104;BME280;34915;52.926;11.116;2022-09-29T03:56:07;99984.00;;;4.57;100.00
49104;BME280;34915;52.926;11.116;2022-09-29T03:58:33;99995.84;;;4.64;100.00
49104;BME280;34915;52.926;11.116;2022-09-29T04:00:59;99982.50;;;4.53;100.00
49104;BME280;34915;52.926;11.116;2022-09-29T04:03:26;100001.44;;;4.58;100.00
49104;BME280;34915;52.926;11.116;2022-09-29T04:05:52;100006.31;;;4.64;100.00
49104;BME280;34915;52.926;11.116;2022-09-29T04:08:17;99999.88;;;4.69;100.00
49104;BME280;34915;52.926;11.116;2022-09-29T04:10:45;100006.72;;;4.72;100.00
49104;BME280;34915;52.926;11.116;2022-09-29T04:13:11;99999.63;;;4.74;100.00
49104;BME280;34915;52.926;11.116;2022-09-29T04:15:37;100003.72;;;4.78;100.00
49104;BME280;34915;52.926;11.116;2022-09-29T04:18:03;99991.75;;;4.74;100.00
49104;BME280;34915;52.926;11.116;2022-09-29T04:20:28;100010.13;;;4.88;100.00
49104;BME280;34915;52.926;11.116;2022-09-29T04:22:54;100008.91;;;4.93;100.00
49104;BME280;34915;52.926;11.116;2022-09-29T04:25:20;100019.03;;;4.99;100.00
49104;BME280;34915;52.926;11.116;2022-09-29T04:27:45;100016.13;;;5.03;100.00
49104;BME280;34915;52.926;11.116;2022-09-29T04:30:11;100009.88;;;5.06;100.00
49104;BME280;34915;52.926;11.116;2022-09-29T04:32:37;100017.47;;;5.10;100.00
49104;BME280;34915;52.926;11.116;2022-09-29T04:35:03;100008.47;;;5.14;100.00
49104;BME280;34915;52.926;11.116;2022-09-29T04:37:28;100006.41;;;5.19;100.00
49104;BME280;34915;52.926;11.116;2022-09-29T04:39:55;100002.66;;;5.23;100.00
49104;BME280;34915;52.926;11.116;2022-09-29T04:42:23;99998.72;;;5.30;100.00
49104;BME280;34915;52.926;11.116;2022-09-29T04:44:49;100004.44;;;5.37;100.00
49104;BME280;34915;52.926;11.116;2022-09-29T04:47:15;100012.03;;;5.41;100.00
49104;BME280;34915;52.926;11.116;2022-09-29T04:49:41;100005.06;;;5.40;100.00
49104;BME280;34915;52.926;11.116;2022-09-29T04:52:10;100018.03;;;5.43;100.00
49104;BME280;34915;52.926;11.116;2022-09-29T04:54:36;100017.09;;;5.44;100.00
49104;BME280;34915;52.926;11.116;2022-09-29T04:57:01;100018.78;;;5.45;100.00
49104;BME280;34915;52.926;11.116;2022-09-29T04:59:27;99993.09;;;5.36;100.00
49104;BME280;34915;52.926;11.116;2022-09-29T05:01:53;100019.63;;;5.45;100.00
49104;BME280;34915;52.926;11.116;2022-09-29T05:04:19;100007.31;;;5.46;100.00
49104;BME280;34915;52.926;11.116;2022-09-29T05:06:45;100022.53;;;5.55;100.00
49104;BME280;34915;52.926;11.116;2022-09-29T05:09:10;100023.09;;;5.60;100.00
49104;BME280;34915;52.926;11.116;2022-09-29T05:11:36;100005.81;;;5.56;100.00
49104;BME280;34915;52.926;11.116;2022-09-29T05:14:02;100009.03;;;5.61;100.00
49104;BME280;34915;52.926;11.116;2022-09-29T05:16:28;100027.66;;;5.70;100.00
49104;BME280;34915;52.926;11.116;2022-09-29T05:18:53;100023.84;;;5.76;100.00
49104;BME280;34915;52.926;11.116;2022-09-29T05:21:19;100024.78;;;5.75;100.00
49104;BME280;34915;52.926;11.116;2022-09-29T05:23:44;100021.13;;;5.77;100.00
49104;BME280;34915;52.926;11.116;2022-09-29T05:26:11;100023.47;;;5.82;100.00
49104;BME280;34915;52.926;11.116;2022-09-29T05:28:41;100027.59;;;5.86;100.00
49104;BME280;34915;52.926;11.116;2022-09-29T05:31:08;100018.00;;;5.85;100.00
49104;BME280;34915;52.926;11.116;2022-09-29T05:33:34;100024.75;;;5.88;100.00
49104;BME280;34915;52.926;11.116;2022-09-29T05:36:03;100024.38;;;5.94;100.00
49104;BME280;34915;52.926;11.116;2022-09-29T05:38:32;100024.38;;;5.94;100.00
49104;BME280;34915;52.926;11.116;2022-09-29T05:40:57;100022.28;;;5.99;100.00
49104;BME280;34915;52.926;11.116;2022-09-29T05:43:23;100027.34;;;6.02;100.00
49104;BME280;34915;52.926;11.116;2022-09-29T05:45:49;100030.53;;;6.07;100.00
49104;BME280;34915;52.926;11.116;2022-09-29T05:48:15;100021.88;;;6.05;100.00
49104;BME280;34915;52.926;11.116;2022-09-29T05:50:41;100028.25;;;6.15;100.00
49104;BME280;34915;52.926;11.116;2022-09-29T05:53:08;100024.59;;;6.18;100.00
49104;BME280;34915;52.926;11.116;2022-09-29T05:55:37;100025.31;;;6.20;100.00
49104;BME280;34915;52.926;11.116;2022-09-29T05:58:04;100033.88;;;6.23;100.00
49104;BME280;34915;52.926;11.116;2022-09-29T06:00:31;100019.03;;;6.22;100.00
49104;BME280;34915;52.926;11.116;2022-09-29T06:02:58;100024.53;;;6.32;100.00
49104;BME280;34915;52.926;11.116;2022-09-29T06:05:25;100016.94;;;6.27;100.00
49104;BME280;34915;52.926;11.116;2022-09-29T06:07:51;100029.69;;;6.33;100.00
49104;BME280;34915;52.926;11.116;2022-09-29T06:10:17;100026.84;;;6.36;100.00
49104;BME280;34915;52.926;11.116;2022-09-29T06:12:43;100028.34;;;6.40;100.00
49104;BME280;34915;52.926;11.116;2022-09-29T06:15:10;100029.84;;;6.44;100.00
49104;BME280;34915;52.926;11.116;2022-09-29T06:17:36;100027.34;;;6.55;100.00
49104;BME280;34915;52.926;11.116;2022-09-29T06:20:03;100032.19;;;6.61;100.00
49104;BME280;34915;52.926;11.116;2022-09-29T06:22:29;100033.47;;;6.68;100.00
49104;BME280;34915;52.926;11.116;2022-09-29T06:24:55;100035.69;;;6.74;100.00
49104;BME280;34915;52.926;11.116;2022-09-29T06:27:21;100036.47;;;6.76;100.00
49104;BME280;34915;52.926;11.116;2022-09-29T06:29:47;100041.53;;;6.79;100.00
49104;BME280;34915;52.926;11.116;2022-09-29T06:32:12;100046.78;;;6.79;100.00
49104;BME280;34915;52.926;11.116;2022-09-29T06:34:38;100039.63;;;6.81;100.00
49104;BME280;34915;52.926;11.116;2022-09-29T06:37:24;100047.31;;;6.84;100.00
49104;BME280;34915;52.926;11.116;2022-09-29T06:39:59;100046.38;;;6.85;100.00
49104;BME280;34915;52.926;11.116;2022-09-29T06:42:25;100051.63;;;6.85;100.00
49104;BME280;34915;52.926;11.116;2022-09-29T06:44:50;100042.59;;;6.88;100.00
49104;BME280;34915;52.926;11.116;2022-09-29T06:47:16;100053.66;;;6.93;100.00
49104;BME280;34915;52.926;11.116;2022-09-29T06:49:42;100057.22;;;6.92;100.00
49104;BME280;34915;52.926;11.116;2022-09-29T06:52:07;100056.28;;;6.93;100.00
49104;BME280;34915;52.926;11.116;2022-09-29T06:54:33;100053.66;;;6.93;100.00
49104;BME280;34915;52.926;11.116;2022-09-29T06:56:58;100055.88;;;6.99;100.00
49104;BME280;34915;52.926;11.116;2022-09-29T06:59:25;100045.97;;;7.03;100.00
49104;BME280;34915;52.926;11.116;2022-09-29T07:01:50;100056.00;;;7.10;100.00
49104;BME280;34915;52.926;11.116;2022-09-29T07:04:17;100044.72;;;7.08;100.00
49104;BME280;34915;52.926;11.116;2022-09-29T07:06:43;100062.09;;;7.23;100.00
49104;BME280;34915;52.926;11.116;2022-09-29T07:09:10;100049.78;;;7.36;100.00
49104;BME280;34915;52.926;11.116;2022-09-29T07:11:41;100055.69;;;7.52;100.00
49104;BME280;34915;52.926;11.116;2022-09-29T07:14:15;100053.97;;;7.63;100.00
49104;BME280;34915;52.926;11.116;2022-09-29T07:16:41;100051.97;;;7.67;100.00
49104;BME280;34915;52.926;11.116;2022-09-29T07:19:07;100052.28;;;7.75;100.00
49104;BME280;34915;52.926;11.116;2022-09-29T07:21:36;100051.63;;;7.83;100.00
49104;BME280;34915;52.926;11.116;2022-09-29T07:24:02;100055.53;;;7.90;100.00
49104;BME280;34915;52.926;11.116;2022-09-29T07:26:27;100051.41;;;7.86;100.00
49104;BME280;34915;52.926;11.116;2022-09-29T07:28:53;100058.00;;;8.04;100.00
49104;BME280;34915;52.926;11.116;2022-09-29T07:31:20;100052.94;;;8.01;100.00
49104;BME280;34915;52.926;11.116;2022-09-29T07:33:47;100058.84;;;8.17;100.00
49104;BME280;34915;52.926;11.116;2022-09-29T07:36:14;100066.53;;;8.20;100.00
49104;BME280;34915;52.926;11.116;2022-09-29T07:38:40;100064.78;;;8.44;100.00
49104;BME280;34915;52.926;11.116;2022-09-29T07:41:09;100063.94;;;8.43;100.00
49104;BME280;34915;52.926;11.116;2022-09-29T07:43:36;100063.66;;;8.59;100.00
49104;BME280;34915;52.926;11.116;2022-09-29T07:46:02;100065.16;;;8.74;100.00
49104;BME280;34915;52.926;11.116;2022-09-29T07:48:29;100057.78;;;8.89;100.00
49104;BME280;34915;52.926;11.116;2022-09-29T07:51:06;100061.16;;;8.91;100.00
49104;BME280;34915;52.926;11.116;2022-09-29T07:53:32;100067.19;;;9.04;100.00
49104;BME280;34915;52.926;11.116;2022-09-29T07:56:12;100065.13;;;9.31;100.00
49104;BME280;34915;52.926;11.116;2022-09-29T07:58:39;100073.28;;;9.39;100.00
49104;BME280;34915;52.926;11.116;2022-09-29T08:01:06;100081.22;;;9.39;100.00
49104;BME280;34915;52.926;11.116;2022-09-29T08:03:36;100078.81;;;9.36;100.00
49104;BME280;34915;52.926;11.116;2022-09-29T08:06:03;100085.16;;;9.23;100.00
49104;BME280;34915;52.926;11.116;2022-09-29T08:08:29;100085.03;;;9.35;100.00
49104;BME280;34915;52.926;11.116;2022-09-29T08:11:09;100076.66;;;9.41;100.00
49104;BME280;34915;52.926;11.116;2022-09-29T08:13:36;100091.84;;;9.50;100.00
49104;BME280;34915;52.926;11.116;2022-09-29T08:16:07;100097.31;;;9.47;100.00
49104;BME280;34915;52.926;11.116;2022-09-29T08:18:34;100096.16;;;9.62;100.00
49104;BME280;34915;52.926;11.116;2022-09-29T08:21:01;100096.16;;;9.62;100.00
49104;BME280;34915;52.926;11.116;2022-09-29T08:23:27;100092.31;;;9.66;100.00
49104;BME280;34915;52.926;11.116;2022-09-29T08:26:01;100099.31;;;9.88;100.00
49104;BME280;34915;52.926;11.116;2022-09-29T08:28:31;100106.81;;;10.05;100.00
49104;BME280;34915;52.926;11.116;2022-09-29T08:31:04;100092.34;;;10.09;100.00
49104;BME280;34915;52.926;11.116;2022-09-29T08:33:31;100105.00;;;10.17;100.00
49104;BME280;34915;52.926;11.116;2022-09-29T08:35:57;100102.22;;;10.18;100.00
49104;BME280;34915;52.926;11.116;2022-09-29T08:38:25;100105.59;;;10.20;100.00
49104;BME280;34915;52.926;11.116;2022-09-29T08:40:50;100104.00;;;10.18;100.00
49104;BME280;34915;52.926;11.116;2022-09-29T08:43:28;100097.16;;;10.37;100.00
49104;BME280;34915;52.926;11.116;2022-09-29T08:46:51;100107.34;;;10.52;100.00
49104;BME280;34915;52.926;11.116;2022-09-29T08:48:51;100108.91;;;10.55;100.00
49104;BME280;34915;52.926;11.116;2022-09-29T08:51:42;100112.25;;;10.57;100.00
49104;BME280;34915;52.926;11.116;2022-09-29T08:56:48;100120.25;;;10.46;100.00
49104;BME280;34915;52.926;11.116;2022-09-29T08:59:14;100101.94;;;10.43;100.00
49104;BME280;34915;52.926;11.116;2022-09-29T09:12:50;100125.19;;;10.92;100.00
49104;BME280;34915;52.926;11.116;2022-09-29T09:15:45;100123.47;;;10.91;100.00
49104;BME280;34915;52.926;11.116;2022-09-29T09:21:12;100119.38;;;10.98;100.00
49104;BME280;34915;52.926;11.116;2022-09-29T09:23:55;100138.84;;;11.08;100.00
49104;BME280;34915;52.926;11.116;2022-09-29T09:26:37;100126.31;;;11.10;100.00
49104;BME280;34915;52.926;11.116;2022-09-29T09:32:03;100128.19;;;11.19;100.00
49104;BME280;34915;52.926;11.116;2022-09-29T09:37:39;100139.44;;;11.12;100.00
49104;BME280;34915;52.926;11.116;2022-09-29T09:40:15;100139.09;;;11.05;100.00
49104;BME280;34915;52.926;11.116;2022-09-29T09:42:52;100144.47;;;11.15;100.00
49104;BME280;34915;52.926;11.116;2022-09-29T09:45:31;100141.69;;;11.16;100.00
49104;BME280;34915;52.926;11.116;2022-09-29T09:48:05;100137.81;;;11.20;100.00
49104;BME280;34915;52.926;11.116;2022-09-29T09:50:38;100143.13;;;11.20;100.00
49104;BME280;34915;52.926;11.116;2022-09-29T09:53:10;100153.22;;;11.26;100.00
49104;BME280;34915;52.926;11.116;2022-09-29T09:55:36;100134.69;;;11.15;100.00
49104;BME280;34915;52.926;11.116;2022-09-29T10:00:56;100156.91;;;11.14;100.00
49104;BME280;34915;52.926;11.116;2022-09-29T10:03:23;100155.25;;;11.02;100.00
49104;BME280;34915;52.926;11.116;2022-09-29T10:05:49;100163.16;;;11.13;100.00
49104;BME280;34915;52.926;11.116;2022-09-29T10:10:50;100162.66;;;11.19;100.00
49104;BME280;34915;52.926;11.116;2022-09-29T10:13:16;100165.97;;;11.32;100.00
49104;BME280;34915;52.926;11.116;2022-09-29T10:16:12;100156.31;;;11.31;100.00
49104;BME280;34915;52.926;11.116;2022-09-29T10:18:39;100163.75;;;11.48;100.00
49104;BME280;34915;52.926;11.116;2022-09-29T10:23:55;100161.50;;;11.84;100.00
49104;BME280;34915;52.926;11.116;2022-09-29T10:26:27;100155.28;;;11.94;100.00
49104;BME280;34915;52.926;11.116;2022-09-29T10:28:56;100154.72;;;12.21;100.00
49104;BME280;34915;52.926;11.116;2022-09-29T10:31:31;100153.06;;;12.29;100.00
49104;BME280;34915;52.926;11.116;2022-09-29T10:33:59;100161.47;;;12.34;100.00
49104;BME280;34915;52.926;11.116;2022-09-29T10:36:31;100148.38;;;12.42;100.00
49104;BME280;34915;52.926;11.116;2022-09-29T10:38:58;100159.16;;;12.50;100.00
49104;BME280;34915;52.926;11.116;2022-09-29T10:41:24;100152.59;;;12.54;100.00
49104;BME280;34915;52.926;11.116;2022-09-29T10:43:49;100158.94;;;12.72;100.00
49104;BME280;34915;52.926;11.116;2022-09-29T10:46:55;100154.50;;;12.81;96.09
49104;BME280;34915;52.926;11.116;2022-09-29T10:49:23;100153.00;;;12.88;99.96
49104;BME280;34915;52.926;11.116;2022-09-29T10:51:59;100163.63;;;12.88;100.00
49104;BME280;34915;52.926;11.116;2022-09-29T10:54:29;100160.28;;;12.96;97.93
49104;BME280;34915;52.926;11.116;2022-09-29T10:56:57;100151.31;;;12.87;99.51
49104;BME280;34915;52.926;11.116;2022-09-29T10:59:24;100151.31;;;12.87;95.81
49104;BME280;34915;52.926;11.116;2022-09-29T11:01:54;100160.25;;;12.86;95.04
49104;BME280;34915;52.926;11.116;2022-09-29T11:04:27;100168.75;;;12.80;96.30
49104;BME280;34915;52.926;11.116;2022-09-29T11:06:54;100169.41;;;12.64;98.76
49104;BME280;34915;52.926;11.116;2022-09-29T11:14:38;100167.41;;;12.47;100.00
49104;BME280;34915;52.926;11.116;2022-09-29T11:17:26;100171.00;;;12.46;100.00
49104;BME280;34915;52.926;11.116;2022-09-29T11:19:54;100166.72;;;12.93;99.29
49104;BME280;34915;52.926;11.116;2022-09-29T11:39:24;100193.66;;;13.47;91.35
49104;BME280;34915;52.926;11.116;2022-09-29T12:00:50;100196.66;;;12.95;94.20
49104;BME280;34915;52.926;11.116;2022-09-29T12:03:29;100205.63;;;12.94;94.13
49104;BME280;34915;52.926;11.116;2022-09-29T12:14:23;100201.97;;;12.86;97.66
49104;BME280;34915;52.926;11.116;2022-09-29T12:16:54;100207.28;;;12.95;92.38
49104;BME280;34915;52.926;11.116;2022-09-29T12:19:25;100203.97;;;13.12;90.28
49104;BME280;34915;52.926;11.116;2022-09-29T12:21:52;100203.44;;;13.37;86.37
49104;BME280;34915;52.926;11.116;2022-09-29T12:24:35;100200.66;;;13.48;88.24
49104;BME280;34915;52.926;11.116;2022-09-29T12:27:06;100199.25;;;13.53;87.71
49104;BME280;34915;52.926;11.116;2022-09-29T12:29:33;100198.53;;;13.61;88.93
49104;BME280;34915;52.926;11.116;2022-09-29T12:32:08;100195.16;;;13.77;87.36
49104;BME280;34915;52.926;11.116;2022-09-29T12:35:30;100200.31;;;14.07;85.29
49104;BME280;34915;52.926;11.116;2022-09-29T12:37:45;100200.19;;;14.09;86.13
49104;BME280;34915;52.926;11.116;2022-09-29T12:43:01;100203.66;;;14.19;82.60
49104;BME280;34915;52.926;11.116;2022-09-29T12:48:47;100200.75;;;14.12;85.16
49104;BME280;34915;52.926;11.116;2022-09-29T12:56:23;100193.44;;;14.14;81.45
49104;BME280;34915;52.926;11.116;2022-09-29T12:58:58;100201.72;;;14.11;78.93
49104;BME280;34915;52.926;11.116;2022-09-29T13:01:31;100196.41;;;14.11;79.87
49104;BME280;34915;52.926;11.116;2022-09-29T13:07:20;100196.97;;;14.05;88.46
49104;BME280;34915;52.926;11.116;2022-09-29T13:20:41;100199.81;;;13.66;84.62
49104;BME280;34915;52.926;11.116;2022-09-29T13:23:21;100211.00;;;13.60;86.15
49104;BME280;34915;52.926;11.116;2022-09-29T13:28:54;100214.63;;;13.40;87.60
49104;BME280;34915;52.926;11.116;2022-09-29T13:31:27;100217.75;;;13.45;87.17
49104;BME280;34915;52.926;11.116;2022-09-29T13:33:55;100218.84;;;13.43;85.92
49104;BME280;34915;52.926;11.116;2022-09-29T13:36:30;100215.88;;;13.27;89.59
49104;BME280;34915;52.926;11.116;2022-09-29T13:39:00;100214.19;;;13.17;94.12
49104;BME280;34915;52.926;11.116;2022-09-29T13:57:04;100207.78;;;13.76;86.04
49104;BME280;34915;52.926;11.116;2022-09-29T13:59:31;100203.44;;;13.93;83.54
49104;BME280;34915;52.926;11.116;2022-09-29T14:01:58;100209.88;;;14.00;84.13
49104;BME280;34915;52.926;11.116;2022-09-29T14:04:53;100211.53;;;14.01;83.88
49104;BME280;34915;52.926;11.116;2022-09-29T14:07:36;100215.63;;;13.86;86.01
49104;BME280;34915;52.926;11.116;2022-09-29T14:16:30;100205.91;;;14.04;86.05
49104;BME280;34915;52.926;11.116;2022-09-29T14:19:00;100209.03;;;13.90;84.63
49104;BME280;34915;52.926;11.116;2022-09-29T14:21:50;100208.41;;;14.25;79.68
49104;BME280;34915;52.926;11.116;2022-09-29T14:35:37;100210.16;;;13.97;85.14
49104;BME280;34915;52.926;11.116;2022-09-29T14:38:33;100222.75;;;13.95;86.85
49104;BME280;34915;52.926;11.116;2022-09-29T15:00:42;100231.16;;;13.91;83.55
49104;BME280;34915;52.926;11.116;2022-09-29T15:03:17;100230.06;;;13.93;84.19
49104;BME280;34915;52.926;11.116;2022-09-29T15:05:46;100236.63;;;13.89;86.82
49104;BME280;34915;52.926;11.116;2022-09-29T15:08:25;100246.63;;;14.06;84.70
49104;BME280;34915;52.926;11.116;2022-09-29T15:10:51;100241.53;;;14.22;81.37
49104;BME280;34915;52.926;11.116;2022-09-29T15:13:24;100247.41;;;14.26;82.07
49104;BME280;34915;52.926;11.116;2022-09-29T15:15:59;100244.34;;;14.11;86.38
49104;BME280;34915;52.926;11.116;2022-09-29T15:21:18;100246.63;;;14.61;75.55
49104;BME280;34915;52.926;11.116;2022-09-29T15:26:39;100249.00;;;14.55;77.32
49104;BME280;34915;52.926;11.116;2022-09-29T15:29:06;100249.94;;;14.27;81.64
49104;BME280;34915;52.926;11.116;2022-09-29T15:31:33;100242.13;;;14.16;79.51
49104;BME280;34915;52.926;11.116;2022-09-29T15:34:00;100251.38;;;14.12;83.43
49104;BME280;34915;52.926;11.116;2022-09-29T15:36:32;100254.41;;;13.98;85.59
49104;BME280;34915;52.926;11.116;2022-09-29T15:39:03;100243.78;;;13.98;80.59
49104;BME280;34915;52.926;11.116;2022-09-29T15:41:30;100259.19;;;13.85;86.36
49104;BME280;34915;52.926;11.116;2022-09-29T15:44:07;100263.53;;;13.68;88.41
49104;BME280;34915;52.926;11.116;2022-09-29T15:46:47;100266.50;;;13.55;88.71
49104;BME280;34915;52.926;11.116;2022-09-29T15:51:44;100274.59;;;13.35;91.47
49104;BME280;34915;52.926;11.116;2022-09-29T15:54:13;100271.06;;;13.25;91.82
49104;BME280;34915;52.926;11.116;2022-09-29T15:56:39;100274.28;;;13.19;94.36
49104;BME280;34915;52.926;11.116;2022-09-29T15:59:40;100282.78;;;13.13;95.30
49104;BME280;34915;52.926;11.116;2022-09-29T16:02:13;100285.00;;;13.08;96.61
49104;BME280;34915;52.926;11.116;2022-09-29T16:04:42;100279.25;;;13.03;97.84
49104;BME280;34915;52.926;11.116;2022-09-29T16:07:25;100293.78;;;12.99;98.55
49104;BME280;34915;52.926;11.116;2022-09-29T16:10:01;100284.53;;;12.94;98.25
49104;BME280;34915;52.926;11.116;2022-09-29T16:12:32;100291.25;;;12.88;98.52
49104;BME280;34915;52.926;11.116;2022-09-29T16:14:59;100298.50;;;12.86;98.99
49104;BME280;34915;52.926;11.116;2022-09-29T16:17:25;100305.03;;;12.82;99.85
49104;BME280;34915;52.926;11.116;2022-09-29T16:19:51;100301.91;;;12.77;99.94